sensor_id;sensor_type;location;lat;lon;timestamp;temperature;humidity
9824;DHT22;4951;50.778;7.196;2023-06-24T00:01:37;17.10;99.90
9824;DHT22;4951;50.778;7.196;2023-06-24T00:04:08;17.10;99.90
9824;DHT22;4951;50.778;7.196;2023-06-24T00:06:53;17.10;99.90
9824;DHT22;4951;50.778;7.196;2023-06-24T00:09:26;17.00;99.90
9824;DHT22;4951;50.778;7.196;2023-06-24T00:11:56;17.00;99.90
9824;DHT22;4951;50.778;7.196;2023-06-24T00:14:46;17.00;99.90
9824;DHT22;4951;50.778;7.196;2023-06-24T00:17:14;17.00;99.90
9824;DHT22;4951;50.778;7.196;2023-06-24T00:19:45;17.00;99.90
9824;DHT22;4951;50.778;7.196;2023-06-24T00:22:14;17.00;99.90
9824;DHT22;4951;50.778;7.196;2023-06-24T00:24:41;16.90;1.00
9824;DHT22;4951;50.778;7.196;2023-06-24T00:27:10;16.90;1.00
9824;DHT22;4951;50.778;7.196;2023-06-24T00:29:49;16.90;1.00
9824;DHT22;4951;50.778;7.196;2023-06-24T00:32:25;16.80;1.00
9824;DHT22;4951;50.778;7.196;2023-06-24T00:34:59;16.80;1.00
9824;DHT22;4951;50.778;7.196;2023-06-24T00:37:35;16.80;1.00
9824;DHT22;4951;50.778;7.196;2023-06-24T00:40:09;16.80;1.00
9824;DHT22;4951;50.778;7.196;2023-06-24T00:42:45;16.70;1.00
9824;DHT22;4951;50.778;7.196;2023-06-24T00:45:15;16.70;1.00
9824;DHT22;4951;50.778;7.196;2023-06-24T00:47:44;16.70;1.00
9824;DHT22;4951;50.778;7.196;2023-06-24T00:50:13;16.70;1.00
9824;DHT22;4951;50.778;7.196;2023-06-24T00:52:40;16.60;1.00
9824;DHT22;4951;50.778;7.196;2023-06-24T00:55:09;16.70;1.00
9824;DHT22;4951;50.778;7.196;2023-06-24T00:57:50;16.60;1.00
9824;DHT22;4951;50.778;7.196;2023-06-24T01:00:33;16.50;1.00
9824;DHT22;4951;50.778;7.196;2023-06-24T01:03:05;16.50;1.00
9824;DHT22;4951;50.778;7.196;2023-06-24T01:05:37;16.50;1.00
9824;DHT22;4951;50.778;7.196;2023-06-24T01:08:31;16.40;1.00
9824;DHT22;4951;50.778;7.196;2023-06-24T01:10:58;16.40;1.00
9824;DHT22;4951;50.778;7.196;2023-06-24T01:13:28;16.40;1.00
9824;DHT22;4951;50.778;7.196;2023-06-24T01:16:12;16.30;1.00
9824;DHT22;4951;50.778;7.196;2023-06-24T01:18:59;16.30;1.00
9824;DHT22;4951;50.778;7.196;2023-06-24T01:21:55;16.20;1.00
9824;DHT22;4951;50.778;7.196;2023-06-24T01:24:44;16.20;1.00
9824;DHT22;4951;50.778;7.196;2023-06-24T01:28:12;16.20;1.00
9824;DHT22;4951;50.778;7.196;2023-06-24T01:31:29;16.20;1.00
9824;DHT22;4951;50.778;7.196;2023-06-24T01:34:15;16.10;1.00
9824;DHT22;4951;50.778;7.196;2023-06-24T01:37:08;16.10;1.00
9824;DHT22;4951;50.778;7.196;2023-06-24T01:40:00;16.00;1.00
9824;DHT22;4951;50.778;7.196;2023-06-24T01:42:42;16.00;1.00
9824;DHT22;4951;50.778;7.196;2023-06-24T01:45:26;16.00;1.00
9824;DHT22;4951;50.778;7.196;2023-06-24T01:48:00;16.00;1.00
9824;DHT22;4951;50.778;7.196;2023-06-24T01:50:33;15.90;1.00
9824;DHT22;4951;50.778;7.196;2023-06-24T01:53:12;15.90;1.00
9824;DHT22;4951;50.778;7.196;2023-06-24T01:56:00;15.90;1.00
9824;DHT22;4951;50.778;7.196;2023-06-24T01:58:28;15.90;1.00
9824;DHT22;4951;50.778;7.196;2023-06-24T02:01:02;15.90;1.00
9824;DHT22;4951;50.778;7.196;2023-06-24T02:03:32;15.90;1.00
9824;DHT22;4951;50.778;7.196;2023-06-24T02:06:09;15.90;1.00
9824;DHT22;4951;50.778;7.196;2023-06-24T02:08:38;15.90;1.00
9824;DHT22;4951;50.778;7.196;2023-06-24T02:11:23;15.90;1.00
9824;DHT22;4951;50.778;7.196;2023-06-24T02:14:03;15.80;1.00
9824;DHT22;4951;50.778;7.196;2023-06-24T02:17:13;15.80;1.00
9824;DHT22;4951;50.778;7.196;2023-06-24T02:19:59;15.80;1.00
9824;DHT22;4951;50.778;7.196;2023-06-24T02:22:27;15.80;1.00
9824;DHT22;4951;50.778;7.196;2023-06-24T02:24:55;15.80;1.00
9824;DHT22;4951;50.778;7.196;2023-06-24T02:27:24;15.70;1.00
9824;DHT22;4951;50.778;7.196;2023-06-24T02:29:52;15.80;1.00
9824;DHT22;4951;50.778;7.196;2023-06-24T02:32:19;15.70;1.00
9824;DHT22;4951;50.778;7.196;2023-06-24T02:34:47;15.70;1.00
9824;DHT22;4951;50.778;7.196;2023-06-24T02:37:21;15.70;1.00
9824;DHT22;4951;50.778;7.196;2023-06-24T02:40:16;15.70;1.00
9824;DHT22;4951;50.778;7.196;2023-06-24T02:43:10;15.60;1.00
9824;DHT22;4951;50.778;7.196;2023-06-24T02:46:10;15.60;1.00
9824;DHT22;4951;50.778;7.196;2023-06-24T02:48:56;15.50;1.00
9824;DHT22;4951;50.778;7.196;2023-06-24T02:52:00;15.60;1.00
9824;DHT22;4951;50.778;7.196;2023-06-24T02:54:36;15.50;1.00
9824;DHT22;4951;50.778;7.196;2023-06-24T02:57:45;15.50;1.00
9824;DHT22;4951;50.778;7.196;2023-06-24T03:00:26;15.50;1.00
9824;DHT22;4951;50.778;7.196;2023-06-24T03:03:11;15.40;1.00
9824;DHT22;4951;50.778;7.196;2023-06-24T03:06:06;15.40;1.00
9824;DHT22;4951;50.778;7.196;2023-06-24T03:08:47;15.40;1.00
9824;DHT22;4951;50.778;7.196;2023-06-24T03:14:58;15.40;1.00
9824;DHT22;4951;50.778;7.196;2023-06-24T03:17:47;15.40;1.00
9824;DHT22;4951;50.778;7.196;2023-06-24T03:21:01;15.30;1.00
9824;DHT22;4951;50.778;7.196;2023-06-24T03:23:54;15.30;1.00
9824;DHT22;4951;50.778;7.196;2023-06-24T03:29:39;15.30;1.00
9824;DHT22;4951;50.778;7.196;2023-06-24T03:32:30;15.30;1.00
9824;DHT22;4951;50.778;7.196;2023-06-24T03:35:25;15.30;1.00
9824;DHT22;4951;50.778;7.196;2023-06-24T03:38:37;15.30;1.00
9824;DHT22;4951;50.778;7.196;2023-06-24T03:42:07;15.30;1.00
9824;DHT22;4951;50.778;7.196;2023-06-24T03:45:15;15.30;1.00
9824;DHT22;4951;50.778;7.196;2023-06-24T03:47:47;15.30;1.00
9824;DHT22;4951;50.778;7.196;2023-06-24T03:50:38;15.30;1.00
9824;DHT22;4951;50.778;7.196;2023-06-24T03:53:27;15.30;1.00
9824;DHT22;4951;50.778;7.196;2023-06-24T03:56:37;15.40;1.00
9824;DHT22;4951;50.778;7.196;2023-06-24T04:02:14;15.40;1.00
9824;DHT22;4951;50.778;7.196;2023-06-24T04:04:46;15.40;1.00
9824;DHT22;4951;50.778;7.196;2023-06-24T04:07:16;15.40;1.00
9824;DHT22;4951;50.778;7.196;2023-06-24T04:09:56;15.40;1.00
9824;DHT22;4951;50.778;7.196;2023-06-24T04:12:26;15.40;1.00
9824;DHT22;4951;50.778;7.196;2023-06-24T04:14:53;15.40;1.00
9824;DHT22;4951;50.778;7.196;2023-06-24T04:17:31;15.50;1.00
9824;DHT22;4951;50.778;7.196;2023-06-24T04:21:02;15.40;1.00
9824;DHT22;4951;50.778;7.196;2023-06-24T04:23:43;15.50;1.00
9824;DHT22;4951;50.778;7.196;2023-06-24T04:26:35;15.50;1.00
9824;DHT22;4951;50.778;7.196;2023-06-24T04:29:02;15.50;1.00
9824;DHT22;4951;50.778;7.196;2023-06-24T04:31:44;15.50;1.00
9824;DHT22;4951;50.778;7.196;2023-06-24T04:34:12;15.60;1.00
9824;DHT22;4951;50.778;7.196;2023-06-24T04:36:46;15.60;1.00
9824;DHT22;4951;50.778;7.196;2023-06-24T04:40:04;15.70;1.00
9824;DHT22;4951;50.778;7.196;2023-06-24T04:42:35;15.80;1.00
9824;DHT22;4951;50.778;7.196;2023-06-24T04:45:05;15.90;1.00
9824;DHT22;4951;50.778;7.196;2023-06-24T04:48:01;16.00;1.00
9824;DHT22;4951;50.778;7.196;2023-06-24T04:50:33;16.00;1.00
9824;DHT22;4951;50.778;7.196;2023-06-24T04:53:08;16.10;1.00
9824;DHT22;4951;50.778;7.196;2023-06-24T04:55:38;16.10;1.00
9824;DHT22;4951;50.778;7.196;2023-06-24T04:58:05;16.20;1.00
9824;DHT22;4951;50.778;7.196;2023-06-24T05:00:41;16.20;1.00
9824;DHT22;4951;50.778;7.196;2023-06-24T05:03:11;16.20;1.00
9824;DHT22;4951;50.778;7.196;2023-06-24T05:05:38;16.30;1.00
9824;DHT22;4951;50.778;7.196;2023-06-24T05:11:24;16.40;1.00
9824;DHT22;4951;50.778;7.196;2023-06-24T05:14:19;16.40;1.00
9824;DHT22;4951;50.778;7.196;2023-06-24T05:16:47;16.50;1.00
9824;DHT22;4951;50.778;7.196;2023-06-24T05:19:14;16.50;1.00
9824;DHT22;4951;50.778;7.196;2023-06-24T05:24:32;16.70;1.00
9824;DHT22;4951;50.778;7.196;2023-06-24T05:30:33;17.00;1.00
9824;DHT22;4951;50.778;7.196;2023-06-24T05:33:13;17.10;1.00
9824;DHT22;4951;50.778;7.196;2023-06-24T05:35:42;17.20;1.00
9824;DHT22;4951;50.778;7.196;2023-06-24T05:38:10;17.20;1.00
9824;DHT22;4951;50.778;7.196;2023-06-24T05:40:37;17.30;1.00
9824;DHT22;4951;50.778;7.196;2023-06-24T05:43:04;17.40;1.00
9824;DHT22;4951;50.778;7.196;2023-06-24T05:45:52;17.50;1.00
9824;DHT22;4951;50.778;7.196;2023-06-24T05:48:49;17.60;1.00
9824;DHT22;4951;50.778;7.196;2023-06-24T05:51:45;17.70;1.00
9824;DHT22;4951;50.778;7.196;2023-06-24T05:54:16;17.90;1.00
9824;DHT22;4951;50.778;7.196;2023-06-24T05:56:43;18.00;1.00
9824;DHT22;4951;50.778;7.196;2023-06-24T06:02:26;18.40;1.00
9824;DHT22;4951;50.778;7.196;2023-06-24T06:04:54;18.50;1.00
9824;DHT22;4951;50.778;7.196;2023-06-24T06:07:42;18.60;1.00
9824;DHT22;4951;50.778;7.196;2023-06-24T06:10:23;18.70;1.00
9824;DHT22;4951;50.778;7.196;2023-06-24T06:13:26;18.80;99.90
9824;DHT22;4951;50.778;7.196;2023-06-24T06:19:25;19.00;99.90
9824;DHT22;4951;50.778;7.196;2023-06-24T06:22:07;19.10;99.90
9824;DHT22;4951;50.778;7.196;2023-06-24T06:27:59;19.20;99.90
9824;DHT22;4951;50.778;7.196;2023-06-24T06:30:33;19.40;99.90
9824;DHT22;4951;50.778;7.196;2023-06-24T06:33:09;19.50;99.90
9824;DHT22;4951;50.778;7.196;2023-06-24T06:35:50;19.60;99.90
9824;DHT22;4951;50.778;7.196;2023-06-24T06:38:27;19.70;99.90
9824;DHT22;4951;50.778;7.196;2023-06-24T06:40:55;19.90;99.90
9824;DHT22;4951;50.778;7.196;2023-06-24T06:43:23;20.00;55.40
9824;DHT22;4951;50.778;7.196;2023-06-24T06:45:50;20.10;23.30
9824;DHT22;4951;50.778;7.196;2023-06-24T06:48:17;20.20;1.00
9824;DHT22;4951;50.778;7.196;2023-06-24T06:50:45;20.30;1.00
9824;DHT22;4951;50.778;7.196;2023-06-24T06:53:30;20.40;1.00
9824;DHT22;4951;50.778;7.196;2023-06-24T06:55:57;20.40;99.90
9824;DHT22;4951;50.778;7.196;2023-06-24T06:58:24;20.50;1.00
9824;DHT22;4951;50.778;7.196;2023-06-24T07:00:55;20.60;68.10
9824;DHT22;4951;50.778;7.196;2023-06-24T07:03:27;20.80;47.80
9824;DHT22;4951;50.778;7.196;2023-06-24T07:05:58;20.90;1.00
9824;DHT22;4951;50.778;7.196;2023-06-24T07:08:27;21.00;1.00
9824;DHT22;4951;50.778;7.196;2023-06-24T07:11:02;21.00;1.00
9824;DHT22;4951;50.778;7.196;2023-06-24T07:13:29;21.10;99.90
9824;DHT22;4951;50.778;7.196;2023-06-24T07:15:56;21.20;1.00
9824;DHT22;4951;50.778;7.196;2023-06-24T07:18:25;21.30;99.90
9824;DHT22;4951;50.778;7.196;2023-06-24T07:20:56;21.40;1.00
9824;DHT22;4951;50.778;7.196;2023-06-24T07:26:51;21.60;99.90
9824;DHT22;4951;50.778;7.196;2023-06-24T07:29:47;21.70;90.90
9824;DHT22;4951;50.778;7.196;2023-06-24T07:32:34;21.70;1.00
9824;DHT22;4951;50.778;7.196;2023-06-24T07:35:36;21.70;99.90
9824;DHT22;4951;50.778;7.196;2023-06-24T07:38:03;21.80;99.90
9824;DHT22;4951;50.778;7.196;2023-06-24T07:40:44;21.90;99.90
9824;DHT22;4951;50.778;7.196;2023-06-24T07:43:16;21.90;1.00
9824;DHT22;4951;50.778;7.196;2023-06-24T07:45:44;22.10;1.00
9824;DHT22;4951;50.778;7.196;2023-06-24T07:48:28;22.20;99.90
9824;DHT22;4951;50.778;7.196;2023-06-24T07:50:58;22.30;99.90
9824;DHT22;4951;50.778;7.196;2023-06-24T07:53:52;22.40;99.90
9824;DHT22;4951;50.778;7.196;2023-06-24T07:56:44;22.40;1.00
9824;DHT22;4951;50.778;7.196;2023-06-24T07:59:42;22.40;1.00
9824;DHT22;4951;50.778;7.196;2023-06-24T08:02:50;22.50;36.90
9824;DHT22;4951;50.778;7.196;2023-06-24T08:05:35;22.50;1.00
9824;DHT22;4951;50.778;7.196;2023-06-24T08:08:06;22.50;1.00
9824;DHT22;4951;50.778;7.196;2023-06-24T08:10:34;22.60;1.00
9824;DHT22;4951;50.778;7.196;2023-06-24T08:13:19;22.70;1.00
9824;DHT22;4951;50.778;7.196;2023-06-24T08:15:54;22.80;1.00
9824;DHT22;4951;50.778;7.196;2023-06-24T08:18:32;22.80;1.00
9824;DHT22;4951;50.778;7.196;2023-06-24T08:21:52;22.90;99.90
9824;DHT22;4951;50.778;7.196;2023-06-24T08:24:44;22.90;18.60
9824;DHT22;4951;50.778;7.196;2023-06-24T08:27:35;23.00;1.00
9824;DHT22;4951;50.778;7.196;2023-06-24T08:31:06;23.00;1.00
9824;DHT22;4951;50.778;7.196;2023-06-24T08:33:51;23.10;1.00
9824;DHT22;4951;50.778;7.196;2023-06-24T08:40:53;23.20;99.90
9824;DHT22;4951;50.778;7.196;2023-06-24T08:44:46;23.30;8.50
9824;DHT22;4951;50.778;7.196;2023-06-24T08:52:14;23.50;1.00
9824;DHT22;4951;50.778;7.196;2023-06-24T08:55:39;23.60;1.00
9824;DHT22;4951;50.778;7.196;2023-06-24T08:59:47;23.60;1.00
9824;DHT22;4951;50.778;7.196;2023-06-24T09:03:05;23.60;1.00
9824;DHT22;4951;50.778;7.196;2023-06-24T09:06:57;23.60;1.00
9824;DHT22;4951;50.778;7.196;2023-06-24T09:10:02;23.80;1.00
9824;DHT22;4951;50.778;7.196;2023-06-24T09:12:54;23.90;1.00
9824;DHT22;4951;50.778;7.196;2023-06-24T09:15:59;23.90;1.00
9824;DHT22;4951;50.778;7.196;2023-06-24T09:19:11;24.00;99.90
9824;DHT22;4951;50.778;7.196;2023-06-24T09:22:47;24.00;99.90
9824;DHT22;4951;50.778;7.196;2023-06-24T09:25:43;24.10;99.90
9824;DHT22;4951;50.778;7.196;2023-06-24T09:28:54;24.20;99.90
9824;DHT22;4951;50.778;7.196;2023-06-24T09:31:59;24.30;99.90
9824;DHT22;4951;50.778;7.196;2023-06-24T09:49:37;24.70;1.00
9824;DHT22;4951;50.778;7.196;2023-06-24T10:00:03;24.80;1.00
9824;DHT22;4951;50.778;7.196;2023-06-24T10:03:00;25.00;1.00
9824;DHT22;4951;50.778;7.196;2023-06-24T10:05:51;25.10;1.00
9824;DHT22;4951;50.778;7.196;2023-06-24T10:08:41;25.20;99.90
9824;DHT22;4951;50.778;7.196;2023-06-24T10:11:13;25.30;99.90
9824;DHT22;4951;50.778;7.196;2023-06-24T10:13:45;25.30;99.90
9824;DHT22;4951;50.778;7.196;2023-06-24T10:23:18;25.60;99.90
9824;DHT22;4951;50.778;7.196;2023-06-24T10:26:26;25.80;99.90
9824;DHT22;4951;50.778;7.196;2023-06-24T10:33:10;25.80;99.90
9824;DHT22;4951;50.778;7.196;2023-06-24T10:35:48;25.90;99.90
9824;DHT22;4951;50.778;7.196;2023-06-24T10:45:31;25.80;11.10
9824;DHT22;4951;50.778;7.196;2023-06-24T10:52:30;26.10;1.00
9824;DHT22;4951;50.778;7.196;2023-06-24T10:56:17;25.90;1.00
9824;DHT22;4951;50.778;7.196;2023-06-24T11:10:45;26.00;1.00
9824;DHT22;4951;50.778;7.196;2023-06-24T11:13:47;26.30;1.00
9824;DHT22;4951;50.778;7.196;2023-06-24T11:17:16;26.50;1.00
9824;DHT22;4951;50.778;7.196;2023-06-24T11:19:51;26.50;1.00
9824;DHT22;4951;50.778;7.196;2023-06-24T11:30:45;26.30;1.00
9824;DHT22;4951;50.778;7.196;2023-06-24T11:41:48;26.60;1.00
9824;DHT22;4951;50.778;7.196;2023-06-24T11:44:52;26.80;1.00
9824;DHT22;4951;50.778;7.196;2023-06-24T11:52:32;27.00;1.00
9824;DHT22;4951;50.778;7.196;2023-06-24T11:56:00;27.10;1.00
9824;DHT22;4951;50.778;7.196;2023-06-24T12:00:49;27.10;1.00
9824;DHT22;4951;50.778;7.196;2023-06-24T12:03:10;27.10;1.00
9824;DHT22;4951;50.778;7.196;2023-06-24T12:06:09;27.10;1.00
9824;DHT22;4951;50.778;7.196;2023-06-24T12:21:03;27.80;1.00
9824;DHT22;4951;50.778;7.196;2023-06-24T12:24:08;27.90;99.90
9824;DHT22;4951;50.778;7.196;2023-06-24T12:27:13;27.90;99.90
9824;DHT22;4951;50.778;7.196;2023-06-24T12:37:03;28.50;99.90
9824;DHT22;4951;50.778;7.196;2023-06-24T12:41:07;28.50;99.90
9824;DHT22;4951;50.778;7.196;2023-06-24T12:44:01;28.70;99.90
9824;DHT22;4951;50.778;7.196;2023-06-24T12:50:08;29.10;99.90
9824;DHT22;4951;50.778;7.196;2023-06-24T12:52:54;29.30;99.90
9824;DHT22;4951;50.778;7.196;2023-06-24T12:56:15;29.50;99.90
9824;DHT22;4951;50.778;7.196;2023-06-24T13:02:39;30.00;99.90
9824;DHT22;4951;50.778;7.196;2023-06-24T13:08:32;30.20;99.90
9824;DHT22;4951;50.778;7.196;2023-06-24T13:11:26;30.40;99.90
9824;DHT22;4951;50.778;7.196;2023-06-24T13:17:59;31.10;99.90
9824;DHT22;4951;50.778;7.196;2023-06-24T13:20:31;31.30;99.90
9824;DHT22;4951;50.778;7.196;2023-06-24T13:23:11;31.30;91.50
9824;DHT22;4951;50.778;7.196;2023-06-24T13:26:34;31.60;99.90
9824;DHT22;4951;50.778;7.196;2023-06-24T13:29:54;32.00;98.00
9824;DHT22;4951;50.778;7.196;2023-06-24T13:39:34;33.10;1.00
9824;DHT22;4951;50.778;7.196;2023-06-24T13:42:03;33.60;1.00
9824;DHT22;4951;50.778;7.196;2023-06-24T13:44:51;33.80;1.00
9824;DHT22;4951;50.778;7.196;2023-06-24T13:54:11;35.00;1.00
9824;DHT22;4951;50.778;7.196;2023-06-24T13:57:01;35.20;1.00
9824;DHT22;4951;50.778;7.196;2023-06-24T14:00:05;35.50;1.00
9824;DHT22;4951;50.778;7.196;2023-06-24T14:02:40;35.90;1.00
9824;DHT22;4951;50.778;7.196;2023-06-24T14:05:34;36.40;1.00
9824;DHT22;4951;50.778;7.196;2023-06-24T14:09:07;36.70;1.00
9824;DHT22;4951;50.778;7.196;2023-06-24T14:12:00;36.90;1.00
9824;DHT22;4951;50.778;7.196;2023-06-24T14:15:12;36.70;1.00
9824;DHT22;4951;50.778;7.196;2023-06-24T14:18:17;36.80;1.00
9824;DHT22;4951;50.778;7.196;2023-06-24T14:21:47;36.80;1.00
9824;DHT22;4951;50.778;7.196;2023-06-24T14:24:59;36.60;1.00
9824;DHT22;4951;50.778;7.196;2023-06-24T14:28:23;36.60;1.00
9824;DHT22;4951;50.778;7.196;2023-06-24T14:31:34;36.40;1.00
9824;DHT22;4951;50.778;7.196;2023-06-24T14:34:41;35.90;1.00
9824;DHT22;4951;50.778;7.196;2023-06-24T14:37:38;35.90;1.00
9824;DHT22;4951;50.778;7.196;2023-06-24T14:40:11;36.30;1.00
9824;DHT22;4951;50.778;7.196;2023-06-24T14:42:40;36.80;1.00
9824;DHT22;4951;50.778;7.196;2023-06-24T14:45:09;37.00;1.00
9824;DHT22;4951;50.778;7.196;2023-06-24T14:48:09;37.30;1.00
9824;DHT22;4951;50.778;7.196;2023-06-24T14:51:24;37.40;1.00
9824;DHT22;4951;50.778;7.196;2023-06-24T14:53:51;37.60;1.00
9824;DHT22;4951;50.778;7.196;2023-06-24T14:56:21;37.50;1.00
9824;DHT22;4951;50.778;7.196;2023-06-24T14:58:53;37.50;1.00
9824;DHT22;4951;50.778;7.196;2023-06-24T15:01:36;37.60;1.00
9824;DHT22;4951;50.778;7.196;2023-06-24T15:04:10;37.80;1.00
9824;DHT22;4951;50.778;7.196;2023-06-24T15:09:44;38.10;1.00
9824;DHT22;4951;50.778;7.196;2023-06-24T15:12:11;38.10;1.00
9824;DHT22;4951;50.778;7.196;2023-06-24T15:14:38;37.90;1.00
9824;DHT22;4951;50.778;7.196;2023-06-24T15:17:10;37.90;1.00
9824;DHT22;4951;50.778;7.196;2023-06-24T15:19:44;37.90;1.00
9824;DHT22;4951;50.778;7.196;2023-06-24T15:22:14;37.90;1.00
9824;DHT22;4951;50.778;7.196;2023-06-24T15:24:41;38.10;1.00
9824;DHT22;4951;50.778;7.196;2023-06-24T15:27:11;38.30;1.00
9824;DHT22;4951;50.778;7.196;2023-06-24T15:30:00;38.20;1.00
9824;DHT22;4951;50.778;7.196;2023-06-24T15:32:49;37.80;1.00
9824;DHT22;4951;50.778;7.196;2023-06-24T15:35:16;37.60;1.00
9824;DHT22;4951;50.778;7.196;2023-06-24T15:37:43;37.50;1.00
9824;DHT22;4951;50.778;7.196;2023-06-24T15:40:15;37.30;1.00
9824;DHT22;4951;50.778;7.196;2023-06-24T15:42:46;37.30;1.00
9824;DHT22;4951;50.778;7.196;2023-06-24T15:45:16;37.40;1.00
9824;DHT22;4951;50.778;7.196;2023-06-24T15:48:00;37.50;1.00
9824;DHT22;4951;50.778;7.196;2023-06-24T15:50:27;37.50;1.00
9824;DHT22;4951;50.778;7.196;2023-06-24T15:53:00;37.50;1.00
9824;DHT22;4951;50.778;7.196;2023-06-24T15:55:27;37.60;1.00
9824;DHT22;4951;50.778;7.196;2023-06-24T15:57:54;37.80;1.00
9824;DHT22;4951;50.778;7.196;2023-06-24T16:00:28;38.10;1.00
9824;DHT22;4951;50.778;7.196;2023-06-24T16:06:26;38.40;1.00
9824;DHT22;4951;50.778;7.196;2023-06-24T16:08:56;38.30;1.00
9824;DHT22;4951;50.778;7.196;2023-06-24T16:11:23;37.90;1.00
9824;DHT22;4951;50.778;7.196;2023-06-24T16:14:03;37.50;1.00
9824;DHT22;4951;50.778;7.196;2023-06-24T16:16:30;37.30;1.00
9824;DHT22;4951;50.778;7.196;2023-06-24T16:18:57;37.00;1.00
9824;DHT22;4951;50.778;7.196;2023-06-24T16:21:37;36.50;1.00
9824;DHT22;4951;50.778;7.196;2023-06-24T16:24:04;36.40;1.00
9824;DHT22;4951;50.778;7.196;2023-06-24T16:26:56;36.30;1.00
9824;DHT22;4951;50.778;7.196;2023-06-24T16:29:23;36.10;1.00
9824;DHT22;4951;50.778;7.196;2023-06-24T16:32:04;36.10;1.00
9824;DHT22;4951;50.778;7.196;2023-06-24T16:34:31;36.30;1.00
9824;DHT22;4951;50.778;7.196;2023-06-24T16:36:59;36.20;1.00
9824;DHT22;4951;50.778;7.196;2023-06-24T16:39:41;35.70;1.00
9824;DHT22;4951;50.778;7.196;2023-06-24T16:42:23;35.40;1.00
9824;DHT22;4951;50.778;7.196;2023-06-24T16:44:53;34.90;1.00
9824;DHT22;4951;50.778;7.196;2023-06-24T16:47:21;34.40;1.00
9824;DHT22;4951;50.778;7.196;2023-06-24T16:49:49;33.70;1.00
9824;DHT22;4951;50.778;7.196;2023-06-24T16:52:31;32.90;1.00
9824;DHT22;4951;50.778;7.196;2023-06-24T16:54:58;32.10;1.00
9824;DHT22;4951;50.778;7.196;2023-06-24T16:57:29;31.50;1.00
9824;DHT22;4951;50.778;7.196;2023-06-24T16:59:56;31.00;1.00
9824;DHT22;4951;50.778;7.196;2023-06-24T17:02:24;30.50;1.00
9824;DHT22;4951;50.778;7.196;2023-06-24T17:04:55;30.20;1.00
9824;DHT22;4951;50.778;7.196;2023-06-24T17:07:22;29.90;1.00
9824;DHT22;4951;50.778;7.196;2023-06-24T17:09:51;29.60;1.00
9824;DHT22;4951;50.778;7.196;2023-06-24T17:12:24;29.40;1.00
9824;DHT22;4951;50.778;7.196;2023-06-24T17:15:13;29.30;1.00
9824;DHT22;4951;50.778;7.196;2023-06-24T17:17:40;29.10;1.00
9824;DHT22;4951;50.778;7.196;2023-06-24T17:20:20;29.00;1.00
9824;DHT22;4951;50.778;7.196;2023-06-24T17:22:48;28.90;1.00
9824;DHT22;4951;50.778;7.196;2023-06-24T17:25:16;28.80;1.00
9824;DHT22;4951;50.778;7.196;2023-06-24T17:27:47;28.80;1.00
9824;DHT22;4951;50.778;7.196;2023-06-24T17:30:16;28.70;1.00
9824;DHT22;4951;50.778;7.196;2023-06-24T17:32:43;28.60;1.00
9824;DHT22;4951;50.778;7.196;2023-06-24T17:35:21;28.60;1.00
9824;DHT22;4951;50.778;7.196;2023-06-24T17:37:48;28.60;1.00
9824;DHT22;4951;50.778;7.196;2023-06-24T17:40:37;28.50;1.00
9824;DHT22;4951;50.778;7.196;2023-06-24T17:43:04;28.50;1.00
9824;DHT22;4951;50.778;7.196;2023-06-24T17:45:47;28.90;1.00
9824;DHT22;4951;50.778;7.196;2023-06-24T17:48:15;29.50;1.00
9824;DHT22;4951;50.778;7.196;2023-06-24T17:50:45;30.20;1.00
9824;DHT22;4951;50.778;7.196;2023-06-24T17:53:14;30.90;1.00
9824;DHT22;4951;50.778;7.196;2023-06-24T17:56:00;31.40;1.00
9824;DHT22;4951;50.778;7.196;2023-06-24T17:58:48;31.90;1.00
9824;DHT22;4951;50.778;7.196;2023-06-24T18:01:16;32.30;1.00
9824;DHT22;4951;50.778;7.196;2023-06-24T18:03:49;32.40;1.00
9824;DHT22;4951;50.778;7.196;2023-06-24T18:06:18;32.30;1.00
9824;DHT22;4951;50.778;7.196;2023-06-24T18:08:45;32.00;1.00
9824;DHT22;4951;50.778;7.196;2023-06-24T18:11:15;31.60;1.00
9824;DHT22;4951;50.778;7.196;2023-06-24T18:13:44;31.20;1.00
9824;DHT22;4951;50.778;7.196;2023-06-24T18:16:16;31.00;1.00
9824;DHT22;4951;50.778;7.196;2023-06-24T18:18:43;30.80;1.00
9824;DHT22;4951;50.778;7.196;2023-06-24T18:21:13;30.80;1.00
9824;DHT22;4951;50.778;7.196;2023-06-24T18:23:44;30.80;1.00
9824;DHT22;4951;50.778;7.196;2023-06-24T18:26:13;30.80;1.00
9824;DHT22;4951;50.778;7.196;2023-06-24T18:28:44;31.10;1.00
9824;DHT22;4951;50.778;7.196;2023-06-24T18:31:11;31.30;1.00
9824;DHT22;4951;50.778;7.196;2023-06-24T18:33:39;31.30;1.00
9824;DHT22;4951;50.778;7.196;2023-06-24T18:36:06;31.30;1.00
9824;DHT22;4951;50.778;7.196;2023-06-24T18:38:33;31.00;1.00
9824;DHT22;4951;50.778;7.196;2023-06-24T18:41:01;30.60;1.00
9824;DHT22;4951;50.778;7.196;2023-06-24T18:43:29;30.30;1.00
9824;DHT22;4951;50.778;7.196;2023-06-24T18:45:57;30.00;1.00
9824;DHT22;4951;50.778;7.196;2023-06-24T18:48:33;29.60;1.00
9824;DHT22;4951;50.778;7.196;2023-06-24T18:51:06;29.20;1.00
9824;DHT22;4951;50.778;7.196;2023-06-24T18:53:40;28.70;1.00
9824;DHT22;4951;50.778;7.196;2023-06-24T18:56:10;28.30;1.00
9824;DHT22;4951;50.778;7.196;2023-06-24T19:02:17;27.50;1.00
9824;DHT22;4951;50.778;7.196;2023-06-24T19:04:46;27.20;1.00
9824;DHT22;4951;50.778;7.196;2023-06-24T19:07:14;26.90;1.00
9824;DHT22;4951;50.778;7.196;2023-06-24T19:09:46;26.70;1.00
9824;DHT22;4951;50.778;7.196;2023-06-24T19:12:48;26.50;1.00
9824;DHT22;4951;50.778;7.196;2023-06-24T19:18:33;26.10;1.00
9824;DHT22;4951;50.778;7.196;2023-06-24T19:21:30;26.00;1.00
9824;DHT22;4951;50.778;7.196;2023-06-24T19:24:05;25.90;1.00
9824;DHT22;4951;50.778;7.196;2023-06-24T19:26:33;25.80;1.00
9824;DHT22;4951;50.778;7.196;2023-06-24T19:29:00;25.70;1.00
9824;DHT22;4951;50.778;7.196;2023-06-24T19:31:29;25.70;1.00
9824;DHT22;4951;50.778;7.196;2023-06-24T19:33:57;25.60;1.00
9824;DHT22;4951;50.778;7.196;2023-06-24T19:36:25;25.50;1.00
9824;DHT22;4951;50.778;7.196;2023-06-24T19:38:54;25.50;1.00
9824;DHT22;4951;50.778;7.196;2023-06-24T19:41:21;25.40;1.00
9824;DHT22;4951;50.778;7.196;2023-06-24T19:44:03;25.40;1.00
9824;DHT22;4951;50.778;7.196;2023-06-24T19:46:34;25.40;1.00
9824;DHT22;4951;50.778;7.196;2023-06-24T19:49:02;25.30;1.00
9824;DHT22;4951;50.778;7.196;2023-06-24T19:51:29;25.20;1.00
9824;DHT22;4951;50.778;7.196;2023-06-24T19:53:57;25.00;1.00
9824;DHT22;4951;50.778;7.196;2023-06-24T19:56:28;24.90;1.00
9824;DHT22;4951;50.778;7.196;2023-06-24T19:59:00;24.70;1.00
9824;DHT22;4951;50.778;7.196;2023-06-24T20:01:37;24.60;1.00
9824;DHT22;4951;50.778;7.196;2023-06-24T20:04:21;24.50;1.00
9824;DHT22;4951;50.778;7.196;2023-06-24T20:07:05;24.30;1.00
9824;DHT22;4951;50.778;7.196;2023-06-24T20:09:41;24.20;1.00
9824;DHT22;4951;50.778;7.196;2023-06-24T20:12:39;24.10;1.00
9824;DHT22;4951;50.778;7.196;2023-06-24T20:15:39;23.90;1.00
9824;DHT22;4951;50.778;7.196;2023-06-24T20:25:22;23.50;1.00
9824;DHT22;4951;50.778;7.196;2023-06-24T20:28:30;23.40;1.00
9824;DHT22;4951;50.778;7.196;2023-06-24T20:31:33;23.30;1.00
9824;DHT22;4951;50.778;7.196;2023-06-24T20:34:18;23.20;1.00
9824;DHT22;4951;50.778;7.196;2023-06-24T20:36:51;23.00;1.00
9824;DHT22;4951;50.778;7.196;2023-06-24T20:39:18;23.00;1.00
9824;DHT22;4951;50.778;7.196;2023-06-24T20:42:00;22.90;1.00
9824;DHT22;4951;50.778;7.196;2023-06-24T20:44:27;22.70;1.00
9824;DHT22;4951;50.778;7.196;2023-06-24T20:46:58;22.70;2.20
9824;DHT22;4951;50.778;7.196;2023-06-24T20:49:32;22.60;21.30
9824;DHT22;4951;50.778;7.196;2023-06-24T20:51:59;22.50;54.10
9824;DHT22;4951;50.778;7.196;2023-06-24T20:54:26;22.40;98.50
9824;DHT22;4951;50.778;7.196;2023-06-24T20:57:10;22.30;99.90
9824;DHT22;4951;50.778;7.196;2023-06-24T20:59:38;22.30;99.90